Time;durP1;ratioP1;P1;durP2;ratioP2;P2;SDS_P1;SDS_P2;PMS_P1;PMS_P2;Temp;Humidity;BMP_temperature;BMP_pressure;BME280_temperature;BME280_humidity;BME280_pressure;Samples;Min_cycle;Max_cycle;Signal;HPM_P1;HPM_P2
2023/06/16 00:01:31;;;;;;;;;;;;;;;17.27;49.67;92772.34;2055515;69;20052;-77
2023/06/16 00:03:59;;;;;;;;;;;;;;;17.19;50.52;92769.19;2060251;69;20066;-76
2023/06/16 00:06:29;;;;;;;;;;;;;;;17.22;50.82;92767.88;2058895;69;20085;-77
2023/06/16 00:08:56;;;;;;;;;;;;;;;17.10;50.08;92770.28;2055642;69;20050;-77
2023/06/16 00:11:22;;;;;;;;;;;;;;;17.07;50.10;92776.53;2058834;69;20250;-76
2023/06/16 00:13:48;;;;;;;;;;;;;;;17.14;50.48;92778.25;2054734;69;20069;-76
2023/06/16 00:16:19;;;;;;;;;;;;;;;17.22;50.99;92772.84;2061535;69;20058;-77
2023/06/16 00:18:57;;;;;;;;;;;;;;;17.09;51.52;92783.03;2056501;69;20054;-79
2023/06/16 00:21:27;;;;;;;;;;;;;;;17.01;51.54;92760.69;2058808;69;20200;-80
2023/06/16 00:23:55;;;;;;;;;;;;;;;17.04;52.95;92787.09;2057109;69;20047;-80
2023/06/16 00:26:22;;;;;;;;;;;;;;;17.14;52.24;92793.19;2060019;69;20085;-80
2023/06/16 00:28:48;;;;;;;;;;;;;;;17.14;51.94;92804.56;2060795;69;20049;-75
2023/06/16 00:31:15;;;;;;;;;;;;;;;17.14;51.07;92801.00;2055400;69;20062;-77
2023/06/16 00:33:40;;;;;;;;;;;;;;;16.73;52.40;92810.78;2056161;69;20086;-76
2023/06/16 00:36:06;;;;;;;;;;;;;;;16.70;53.28;92821.31;2054639;69;20050;-76
2023/06/16 00:38:33;;;;;;;;;;;;;;;16.98;52.44;92823.84;2055074;69;20050;-78
2023/06/16 00:40:59;;;;;;;;;;;;;;;16.93;52.01;92834.31;2058522;69;20070;-78
2023/06/16 00:43:25;;;;;;;;;;;;;;;16.49;53.02;92839.66;2055519;69;20124;-77
2023/06/16 00:45:54;;;;;;;;;;;;;;;16.92;51.85;92852.03;2055310;69;20112;-75
2023/06/16 00:48:20;;;;;;;;;;;;;;;16.78;53.10;92872.09;2060380;69;20077;-78
2023/06/16 00:50:46;;;;;;;;;;;;;;;16.32;53.82;92882.97;2058118;69;20150;-79
2023/06/16 00:53:16;;;;;;;;;;;;;;;16.58;58.91;92883.31;2057947;69;20053;-74
2023/06/16 00:55:42;;;;;;;;;;;;;;;16.47;62.05;92910.59;2058384;69;20104;-77
2023/06/16 00:58:07;;;;;;;;;;;;;;;16.54;62.20;92914.44;2056177;69;20093;-79
2023/06/16 01:00:35;;;;;;;;;;;;;;;16.36;64.54;92934.28;2061815;69;20049;-78
2023/06/16 01:03:04;;;;;;;;;;;;;;;16.49;65.06;92929.84;2056071;69;20088;-75
2023/06/16 01:05:29;;;;;;;;;;;;;;;16.51;64.88;92922.13;2060192;69;20064;-77
2023/06/16 01:08:04;;;;;;;;;;;;;;;16.37;61.07;92920.81;2054872;69;20090;-77
2023/06/16 01:10:45;;;;;;;;;;;;;;;15.83;65.84;92908.50;2057928;69;20519;-75
2023/06/16 01:13:22;;;;;;;;;;;;;;;15.63;65.30;92894.13;2061704;69;20112;-74
2023/06/16 01:15:48;;;;;;;;;;;;;;;15.28;69.27;92897.47;2059985;69;20058;-76
2023/06/16 01:18:22;;;;;;;;;;;;;;;15.55;70.14;92897.31;2054280;69;20149;-77
2023/06/16 01:21:08;;;;;;;;;;;;;;;15.79;69.72;92902.66;2056187;69;20050;-77
2023/06/16 01:23:53;;;;;;;;;;;;;;;15.90;68.98;92896.78;2054709;69;20046;-78
2023/06/16 01:26:22;;;;;;;;;;;;;;;15.88;69.25;92893.13;2055094;69;20055;-77
2023/06/16 01:28:50;;;;;;;;;;;;;;;15.83;68.67;92880.84;2058579;69;20061;-79
2023/06/16 01:31:17;;;;;;;;;;;;;;;15.92;68.69;92882.69;2055565;69;20065;-76
2023/06/16 01:33:44;;;;;;;;;;;;;;;15.98;69.02;92882.94;2057202;69;20058;-78
2023/06/16 01:36:10;;;;;;;;;;;;;;;15.94;66.90;92879.19;2056272;69;20061;-78
2023/06/16 01:38:36;;;;;;;;;;;;;;;15.88;67.22;92885.34;2059585;69;20141;-80
2023/06/16 01:41:03;;;;;;;;;;;;;;;15.94;63.94;92885.63;2059736;69;20093;-78
2023/06/16 01:43:30;;;;;;;;;;;;;;;15.74;67.91;92884.72;2055515;69;20058;-77
2023/06/16 01:45:58;;;;;;;;;;;;;;;15.79;67.03;92879.94;2054623;69;20057;-77
2023/06/16 01:48:23;;;;;;;;;;;;;;;15.63;68.87;92883.50;2057904;69;20046;-82
2023/06/16 01:50:49;;;;;;;;;;;;;;;15.82;66.91;92879.41;2058436;69;20481;-81
2023/06/16 01:53:16;;;;;;;;;;;;;;;15.58;62.77;92866.91;2056701;69;20146;-81
2023/06/16 01:55:48;;;;;;;;;;;;;;;15.71;63.79;92875.38;2058880;69;20180;-77
2023/06/16 01:58:14;;;;;;;;;;;;;;;15.51;66.21;92875.16;2054609;69;20073;-85
2023/06/16 02:00:45;;;;;;;;;;;;;;;15.37;65.49;92885.13;2054649;69;20058;-76
2023/06/16 02:03:16;;;;;;;;;;;;;;;15.48;65.62;92884.22;2057876;69;20137;-77
2023/06/16 02:05:46;;;;;;;;;;;;;;;15.59;66.72;92868.41;2054043;69;20149;-77
2023/06/16 02:08:12;;;;;;;;;;;;;;;15.63;67.01;92869.31;2057543;69;20088;-80
2023/06/16 02:10:38;;;;;;;;;;;;;;;15.60;67.27;92864.91;2057631;69;20056;-77
2023/06/16 02:13:05;;;;;;;;;;;;;;;15.50;67.96;92865.19;2058014;69;20046;-80
2023/06/16 02:15:32;;;;;;;;;;;;;;;15.31;67.70;92865.00;2054686;69;20077;-77
2023/06/16 02:17:57;;;;;;;;;;;;;;;15.28;69.42;92874.78;2054779;69;20050;-79
2023/06/16 02:20:27;;;;;;;;;;;;;;;15.22;70.17;92870.31;2054902;69;20057;-79
2023/06/16 02:22:53;;;;;;;;;;;;;;;15.23;70.43;92882.38;2056679;69;20124;-82
2023/06/16 02:25:18;;;;;;;;;;;;;;;15.41;68.90;92888.16;2055078;69;20097;-77
2023/06/16 02:27:45;;;;;;;;;;;;;;;15.52;67.71;92879.47;2055248;69;20120;-77
2023/06/16 02:30:11;;;;;;;;;;;;;;;15.36;70.00;92881.56;2054860;69;20066;-77
2023/06/16 02:32:37;;;;;;;;;;;;;;;15.33;69.34;92888.50;2060864;69;20129;-79
2023/06/16 02:35:04;;;;;;;;;;;;;;;15.31;69.55;92884.88;2059191;69;20432;-80
2023/06/16 02:37:29;;;;;;;;;;;;;;;15.17;70.05;92885.66;2061282;69;20061;-77
2023/06/16 02:39:56;;;;;;;;;;;;;;;15.36;69.71;92881.56;2058403;69;20085;-75
2023/06/16 02:42:22;;;;;;;;;;;;;;;15.28;69.82;92884.03;2054471;69;20058;-77
2023/06/16 02:44:48;;;;;;;;;;;;;;;15.44;68.98;92881.94;2054685;69;20042;-78
2023/06/16 02:47:13;;;;;;;;;;;;;;;15.07;70.96;92879.50;2060024;69;20136;-78
2023/06/16 02:49:42;;;;;;;;;;;;;;;15.27;69.32;92876.16;2054982;69;20529;-77
2023/06/16 02:52:12;;;;;;;;;;;;;;;15.18;69.60;92889.97;2057983;69;20401;-80
2023/06/16 02:54:40;;;;;;;;;;;;;;;15.27;69.23;92885.41;2055064;69;20050;-78
2023/06/16 02:57:08;;;;;;;;;;;;;;;15.17;70.05;92885.66;2055108;69;20055;-81
2023/06/16 02:59:45;;;;;;;;;;;;;;;15.09;70.73;92879.59;2058986;69;20493;-78
2023/06/16 03:02:12;;;;;;;;;;;;;;;15.21;69.84;92880.19;2057345;69;20069;-79
2023/06/16 03:04:48;;;;;;;;;;;;;;;15.23;69.41;92876.69;2058998;69;20062;-78
2023/06/16 03:07:29;;;;;;;;;;;;;;;15.20;69.15;92878.69;2058629;69;20128;-77
2023/06/16 03:09:56;;;;;;;;;;;;;;;15.09;70.67;92868.28;2056772;69;20485;-78
2023/06/16 03:12:24;;;;;;;;;;;;;;;15.05;70.38;92879.41;2055605;69;20062;-79
2023/06/16 03:15:06;;;;;;;;;;;;;;;15.10;70.59;92874.66;2058146;69;20045;-78
2023/06/16 03:17:33;;;;;;;;;;;;;;;15.09;70.11;92873.22;2056823;69;20076;-78
2023/06/16 03:19:59;;;;;;;;;;;;;;;15.17;69.83;92873.59;2059296;69;20499;-82
2023/06/16 03:22:36;;;;;;;;;;;;;;;14.88;71.45;92874.34;2055299;69;20046;-81
2023/06/16 03:25:03;;;;;;;;;;;;;;;15.03;70.66;92885.00;2059070;69;20057;-84
2023/06/16 03:27:32;;;;;;;;;;;;;;;14.96;71.07;92881.13;2059456;69;20085;-82
2023/06/16 03:30:01;;;;;;;;;;;;;;;14.95;71.05;92878.94;2055299;69;20046;-79
2023/06/16 03:32:38;;;;;;;;;;;;;;;14.89;71.43;92882.22;2052748;69;20053;-80
2023/06/16 03:35:06;;;;;;;;;;;;;;;14.79;71.40;92883.81;2054768;69;20068;-79
2023/06/16 03:37:34;;;;;;;;;;;;;;;14.99;68.56;92879.88;2058567;69;20229;-80
2023/06/16 03:40:05;;;;;;;;;;;;;;;15.08;69.86;92885.94;2055288;69;20057;-77
2023/06/16 03:42:35;;;;;;;;;;;;;;;15.14;69.85;92877.69;2057349;69;20046;-77
2023/06/16 03:45:01;;;;;;;;;;;;;;;15.07;68.97;92876.66;2056856;69;20081;-76
2023/06/16 03:47:26;;;;;;;;;;;;;;;14.85;70.54;92879.19;2056531;69;20062;-80
2023/06/16 03:49:53;;;;;;;;;;;;;;;14.85;70.58;92873.53;2056966;69;20089;-79
2023/06/16 03:52:19;;;;;;;;;;;;;;;14.60;71.37;92882.94;2059718;69;20124;-77
2023/06/16 03:54:44;;;;;;;;;;;;;;;14.73;70.46;92879.34;2054837;69;20518;-76
2023/06/16 03:57:13;;;;;;;;;;;;;;;14.71;70.19;92884.91;2053071;69;20169;-76
2023/06/16 03:59:40;;;;;;;;;;;;;;;14.65;71.05;92898.78;2055063;69;20053;-79
2023/06/16 04:02:07;;;;;;;;;;;;;;;14.77;70.04;92892.25;2057632;69;20153;-78
2023/06/16 04:04:43;;;;;;;;;;;;;;;14.70;70.99;92896.88;2058403;69;20089;-76
2023/06/16 04:13:36;;;;;;;;;;;;;;;14.68;71.81;92900.34;2053337;70;20100;-75
2023/06/16 04:16:06;;;;;;;;;;;;;;;14.91;71.25;92896.47;2052611;70;20062;-79
2023/06/16 04:18:32;;;;;;;;;;;;;;;14.96;71.20;92898.13;2051635;70;20090;-77
2023/06/16 04:20:57;;;;;;;;;;;;;;;14.95;70.07;92893.13;2054963;69;20125;-76
2023/06/16 04:23:24;;;;;;;;;;;;;;;14.97;70.13;92893.94;2055969;69;20062;-76
2023/06/16 04:25:50;;;;;;;;;;;;;;;15.17;69.60;92891.34;2055817;70;20485;-77
2023/06/16 04:28:17;;;;;;;;;;;;;;;15.12;67.64;92891.75;2052427;70;20062;-78
2023/06/16 04:30:49;;;;;;;;;;;;;;;14.99;69.50;92896.16;2051521;69;20066;-78
2023/06/16 04:33:15;;;;;;;;;;;;;;;15.19;68.30;92894.25;2051636;70;20055;-76
2023/06/16 04:35:41;;;;;;;;;;;;;;;15.09;67.60;92890.22;2056741;69;20038;-79
2023/06/16 04:38:08;;;;;;;;;;;;;;;15.21;69.35;92899.28;2051955;69;20113;-78
2023/06/16 04:40:36;;;;;;;;;;;;;;;15.23;68.57;92902.22;2051875;69;20057;-77
2023/06/16 04:43:07;;;;;;;;;;;;;;;15.46;67.58;92898.31;2052181;69;20069;-78
2023/06/16 04:45:40;;;;;;;;;;;;;;;15.57;67.58;92900.22;2058547;69;20119;-80
2023/06/16 04:48:05;;;;;;;;;;;;;;;15.61;67.50;92891.91;2056170;69;20490;-79
2023/06/16 04:50:30;;;;;;;;;;;;;;;15.45;69.30;92896.88;2054165;70;20050;-78
2023/06/16 04:52:56;;;;;;;;;;;;;;;15.44;68.82;92904.66;2053479;69;20058;-78
2023/06/16 04:55:22;;;;;;;;;;;;;;;15.25;69.69;92903.03;2058044;69;20144;-77
2023/06/16 04:57:47;;;;;;;;;;;;;;;15.40;70.39;92898.03;2051795;70;20492;-78
2023/06/16 05:00:14;;;;;;;;;;;;;;;15.42;69.79;92898.13;2053847;69;20078;-79
2023/06/16 05:02:41;;;;;;;;;;;;;;;15.45;71.15;92896.88;2054668;69;20112;-77
2023/06/16 05:05:07;;;;;;;;;;;;;;;15.51;70.81;92895.03;2056923;69;20051;-78
2023/06/16 05:07:33;;;;;;;;;;;;;;;15.49;71.33;92897.78;2057840;69;20070;-82
2023/06/16 05:09:58;;;;;;;;;;;;;;;15.56;70.19;92895.94;2053015;70;20136;-78
2023/06/16 05:12:25;;;;;;;;;;;;;;;15.69;69.18;92889.47;2056148;69;20131;-78
2023/06/16 05:14:52;;;;;;;;;;;;;;;15.72;67.71;92890.31;2055052;69;20086;-81
2023/06/16 05:17:17;;;;;;;;;;;;;;;15.80;69.71;92895.59;2055524;69;20061;-80
2023/06/16 05:19:43;;;;;;;;;;;;;;;15.89;69.22;92889.63;2054389;69;20124;-81
2023/06/16 05:22:09;;;;;;;;;;;;;;;15.79;70.47;92882.78;2055199;69;20074;-79
2023/06/16 05:24:35;;;;;;;;;;;;;;;16.00;68.15;92876.63;2057585;69;20070;-78
2023/06/16 05:27:02;;;;;;;;;;;;;;;15.82;70.17;92876.56;2053688;69;20082;-77
2023/06/16 05:29:28;;;;;;;;;;;;;;;15.84;68.71;92876.63;2054262;70;20886;-80
2023/06/16 05:31:54;;;;;;;;;;;;;;;16.02;68.88;92873.88;2055219;69;20513;-82
2023/06/16 05:34:21;;;;;;;;;;;;;;;16.15;68.48;92869.44;2054773;69;20078;-82
2023/06/16 05:36:46;;;;;;;;;;;;;;;16.20;67.98;92868.97;2054915;69;20811;-80
2023/06/16 05:39:15;;;;;;;;;;;;;;;16.31;67.24;92866.56;2051523;70;20093;-79
2023/06/16 05:41:43;;;;;;;;;;;;;;;16.18;68.61;92874.56;2054333;69;20173;-82
2023/06/16 05:44:10;;;;;;;;;;;;;;;16.17;68.21;92875.97;2054495;70;20470;-81
2023/06/16 05:46:35;;;;;;;;;;;;;;;16.32;67.93;92877.28;2052616;69;20053;-80
2023/06/16 05:49:01;;;;;;;;;;;;;;;16.16;69.04;92883.00;2051901;70;20054;-78
2023/06/16 05:51:27;;;;;;;;;;;;;;;16.18;69.59;92883.09;2054334;70;20099;-80
2023/06/16 05:53:53;;;;;;;;;;;;;;;16.40;67.03;92889.00;2050206;70;20100;-82
2023/06/16 05:56:20;;;;;;;;;;;;;;;16.43;68.19;92884.84;2050326;70;20461;-77
2023/06/16 05:58:45;;;;;;;;;;;;;;;16.45;68.02;92887.06;2056957;69;20050;-79
2023/06/16 06:01:13;;;;;;;;;;;;;;;16.42;68.49;92883.41;2056919;69;20061;-81
2023/06/16 06:03:43;;;;;;;;;;;;;;;16.46;68.09;92894.19;2048576;70;20401;-80
2023/06/16 06:06:09;;;;;;;;;;;;;;;16.43;68.54;92878.44;2056057;70;20042;-83
2023/06/16 06:08:35;;;;;;;;;;;;;;;16.45;69.27;92890.63;2051479;70;20042;-79
2023/06/16 06:11:02;;;;;;;;;;;;;;;16.40;70.01;92897.53;2052005;70;20050;-80
2023/06/16 06:13:33;;;;;;;;;;;;;;;16.50;70.23;92891.53;2053961;69;20054;-79
2023/06/16 06:16:00;;;;;;;;;;;;;;;16.60;67.95;92891.22;2055178;69;20145;-82
2023/06/16 06:18:25;;;;;;;;;;;;;;;16.67;69.17;92890.81;2053955;70;20560;-81
2023/06/16 06:20:51;;;;;;;;;;;;;;;16.80;69.29;92892.06;2053209;70;20100;-78
2023/06/16 06:23:17;;;;;;;;;;;;;;;16.76;69.33;92891.91;2054304;69;20066;-78
2023/06/16 06:25:44;;;;;;;;;;;;;;;16.80;68.19;92892.06;2046792;70;20058;-78
2023/06/16 06:28:13;;;;;;;;;;;;;;;16.68;70.41;92897.97;2052011;69;20121;-77
2023/06/16 06:30:40;;;;;;;;;;;;;;;16.63;70.64;92896.34;2052404;69;20413;-77
2023/06/16 06:33:06;;;;;;;;;;;;;;;16.92;67.21;92898.25;2052477;70;20125;-78
2023/06/16 06:35:31;;;;;;;;;;;;;;;16.98;69.19;92903.47;2052407;70;20050;-77
2023/06/16 06:37:58;;;;;;;;;;;;;;;17.05;68.45;92898.75;2053739;69;20470;-79
2023/06/16 06:40:24;;;;;;;;;;;;;;;17.22;67.64;92901.56;2059063;69;20493;-79
2023/06/16 06:42:50;;;;;;;;;;;;;;;17.17;67.00;92902.81;2058506;69;20057;-77
2023/06/16 06:45:30;;;;;;;;;;;;;;;17.28;67.48;92904.69;2051644;69;20501;-77
2023/06/16 06:47:55;;;;;;;;;;;;;;;17.44;64.93;92903.84;2055850;69;20059;-78
2023/06/16 06:50:21;;;;;;;;;;;;;;;17.61;63.54;92903.09;2052037;70;20046;-78
2023/06/16 06:52:46;;;;;;;;;;;;;;;17.58;63.65;92900.81;2057729;69;20050;-78
2023/06/16 06:55:12;;;;;;;;;;;;;;;17.33;64.81;92896.31;2057935;69;20144;-79
2023/06/16 06:57:39;;;;;;;;;;;;;;;17.90;64.55;92890.66;2056716;69;20081;-79
2023/06/16 07:00:07;;;;;;;;;;;;;;;17.50;61.71;92892.69;2059216;69;20053;-77
2023/06/16 07:02:32;;;;;;;;;;;;;;;17.16;62.49;92900.63;2055651;69;20763;-77
2023/06/16 07:04:58;;;;;;;;;;;;;;;18.02;59.69;92891.09;2058413;69;20086;-77
2023/06/16 07:07:24;;;;;;;;;;;;;;;18.33;60.79;92897.16;2051739;69;20157;-76
2023/06/16 07:09:49;;;;;;;;;;;;;;;18.08;55.84;92892.72;2055870;69;20055;-77
2023/06/16 07:12:16;;;;;;;;;;;;;;;17.64;58.32;92889.63;2055721;69;20141;-78
2023/06/16 07:14:41;;;;;;;;;;;;;;;17.75;58.50;92888.69;2056528;70;20054;-77
2023/06/16 07:17:07;;;;;;;;;;;;;;;18.34;60.39;92887.22;2056097;69;20057;-77
2023/06/16 07:19:32;;;;;;;;;;;;;;;18.64;57.17;92884.69;2054325;70;20105;-77
2023/06/16 07:21:57;;;;;;;;;;;;;;;18.83;57.51;92886.03;2056298;69;20090;-78
2023/06/16 07:24:23;;;;;;;;;;;;;;;18.04;60.01;92884.75;2055647;69;20050;-77
2023/06/16 07:26:49;;;;;;;;;;;;;;;18.42;57.71;92881.81;2056197;70;20049;-77
2023/06/16 07:29:15;;;;;;;;;;;;;;;18.22;56.61;92887.50;2057371;69;20053;-77
2023/06/16 07:31:40;;;;;;;;;;;;;;;18.65;57.48;92886.16;2058218;69;20042;-77
2023/06/16 07:34:06;;;;;;;;;;;;;;;18.98;54.51;92890.84;2052173;70;20054;-77
2023/06/16 07:36:33;;;;;;;;;;;;;;;19.24;55.37;92886.00;2055562;69;20057;-77
2023/06/16 07:38:58;;;;;;;;;;;;;;;19.48;56.35;92891.00;2052030;70;20058;-77
2023/06/16 07:41:24;;;;;;;;;;;;;;;19.26;55.78;92886.03;2054878;70;20159;-76
2023/06/16 07:43:49;;;;;;;;;;;;;;;19.48;58.86;92882.44;2057832;69;20046;-76
2023/06/16 07:46:17;;;;;;;;;;;;;;;19.55;60.15;92884.78;2058107;69;20081;-76
2023/06/16 07:48:44;;;;;;;;;;;;;;;19.55;57.42;92881.94;2053637;69;20081;-77
2023/06/16 07:51:10;;;;;;;;;;;;;;;19.51;57.05;92881.06;2058773;69;20042;-77
2023/06/16 07:53:36;;;;;;;;;;;;;;;19.71;58.82;92876.03;2056272;69;20049;-77
2023/06/16 07:56:02;;;;;;;;;;;;;;;19.88;57.79;92877.19;2055626;69;20066;-79
2023/06/16 07:58:28;;;;;;;;;;;;;;;19.84;57.24;92874.25;2057374;69;20042;-78
2023/06/16 08:00:53;;;;;;;;;;;;;;;20.02;57.46;92876.88;2054649;69;20047;-80
2023/06/16 08:03:19;;;;;;;;;;;;;;;19.98;58.28;92868.22;2055466;69;20403;-77
2023/06/16 08:05:45;;;;;;;;;;;;;;;19.95;60.93;92872.41;2055877;70;20212;-76
2023/06/16 08:08:10;;;;;;;;;;;;;;;19.99;60.28;92858.25;2055832;69;20142;-76
2023/06/16 08:10:36;;;;;;;;;;;;;;;20.15;58.40;92861.53;2058817;69;20045;-77
2023/06/16 08:13:01;;;;;;;;;;;;;;;20.01;59.66;92869.72;2058835;69;20067;-77
2023/06/16 08:15:27;;;;;;;;;;;;;;;19.90;60.55;92867.97;2056157;69;20109;-76
2023/06/16 08:17:52;;;;;;;;;;;;;;;19.86;61.07;92862.88;2055788;69;20070;-77
2023/06/16 08:20:18;;;;;;;;;;;;;;;19.87;60.73;92867.19;2055777;69;20093;-78
2023/06/16 08:22:43;;;;;;;;;;;;;;;19.95;60.79;92870.28;2059181;69;20050;-77
2023/06/16 08:25:09;;;;;;;;;;;;;;;19.71;61.56;92873.16;2055946;69;20054;-78
2023/06/16 08:27:34;;;;;;;;;;;;;;;19.67;59.72;92873.03;2059096;69;20050;-77
2023/06/16 08:30:00;;;;;;;;;;;;;;;19.61;61.08;92881.44;2058566;69;20053;-78
2023/06/16 08:32:26;;;;;;;;;;;;;;;19.65;61.36;92875.09;2056527;69;20057;-79
2023/06/16 08:34:51;;;;;;;;;;;;;;;19.74;61.28;92862.50;2055873;69;20052;-78
2023/06/16 08:37:17;;;;;;;;;;;;;;;19.89;61.56;92875.81;2052609;70;20049;-77
2023/06/16 08:39:43;;;;;;;;;;;;;;;19.80;61.81;92874.13;2052445;70;20078;-78
2023/06/16 08:42:09;;;;;;;;;;;;;;;19.90;61.66;92877.28;2055963;69;20046;-77
2023/06/16 08:44:35;;;;;;;;;;;;;;;19.99;61.76;92875.38;2055865;69;20090;-77
2023/06/16 08:47:02;;;;;;;;;;;;;;;20.06;60.41;92874.16;2059490;69;20046;-78
2023/06/16 08:49:28;;;;;;;;;;;;;;;19.90;62.05;92865.13;2056588;69;20054;-78
2023/06/16 08:51:57;;;;;;;;;;;;;;;20.07;60.87;92867.06;2052284;69;20157;-78
2023/06/16 08:54:24;;;;;;;;;;;;;;;20.15;59.40;92866.53;2057748;69;20065;-79
2023/06/16 08:56:51;;;;;;;;;;;;;;;20.56;58.51;92865.53;2058912;69;20050;-78
2023/06/16 08:59:18;;;;;;;;;;;;;;;20.63;59.15;92869.28;2057590;69;20468;-78
2023/06/16 09:01:44;;;;;;;;;;;;;;;20.72;57.64;92860.25;2058495;69;20437;-77
2023/06/16 09:04:12;;;;;;;;;;;;;;;20.72;58.16;92856.66;2052125;70;20510;-79
2023/06/16 09:06:38;;;;;;;;;;;;;;;20.63;58.12;92869.28;2056456;69;20156;-77
2023/06/16 09:09:03;;;;;;;;;;;;;;;20.34;57.74;92870.63;2058438;69;20138;-78
2023/06/16 09:11:30;;;;;;;;;;;;;;;19.99;57.53;92861.81;2055975;69;20175;-78
2023/06/16 09:13:56;;;;;;;;;;;;;;;20.19;55.16;92858.78;2053264;70;20054;-78
2023/06/16 09:16:22;;;;;;;;;;;;;;;20.38;54.52;92862.88;2055981;70;20058;-77
2023/06/16 09:18:49;;;;;;;;;;;;;;;20.46;59.01;92862.38;2052301;70;20464;-77
2023/06/16 09:21:20;;;;;;;;;;;;;;;20.48;57.20;92854.63;2055260;69;20055;-78
2023/06/16 09:23:47;;;;;;;;;;;;;;;20.46;57.17;92857.38;2055222;69;20050;-78
2023/06/16 09:26:13;;;;;;;;;;;;;;;20.39;59.20;92849.31;2052556;70;20562;-79
2023/06/16 09:28:39;;;;;;;;;;;;;;;20.14;56.46;92854.38;2056015;69;20077;-78
2023/06/16 09:31:06;;;;;;;;;;;;;;;20.33;56.94;92854.88;2055609;69;20155;-79
2023/06/16 09:33:33;;;;;;;;;;;;;;;20.49;60.31;92856.06;2056940;69;20106;-78
2023/06/16 09:35:58;;;;;;;;;;;;;;;20.83;59.18;92841.19;2057636;69;20086;-79
2023/06/16 09:38:25;;;;;;;;;;;;;;;21.05;59.69;92847.47;2058476;69;20090;-78
2023/06/16 09:40:51;;;;;;;;;;;;;;;21.38;56.77;92847.53;2059168;69;20071;-76
2023/06/16 09:43:18;;;;;;;;;;;;;;;21.69;55.86;92848.94;2051970;69;20126;-75
2023/06/16 09:45:44;;;;;;;;;;;;;;;21.78;55.93;92848.44;2058719;69;20528;-75
2023/06/16 09:48:11;;;;;;;;;;;;;;;21.95;53.04;92854.53;2057816;69;20046;-76
2023/06/16 09:50:37;;;;;;;;;;;;;;;22.12;52.86;92855.59;2050654;69;20058;-76
2023/06/16 09:53:04;;;;;;;;;;;;;;;22.22;51.31;92853.69;2054920;69;20161;-76
2023/06/16 09:55:30;;;;;;;;;;;;;;;22.26;51.77;92861.59;2055491;69;20528;-74
2023/06/16 09:57:56;;;;;;;;;;;;;;;22.52;49.83;92838.44;2057165;69;20199;-76
2023/06/16 10:00:22;;;;;;;;;;;;;;;23.50;50.29;92835.09;2054222;69;20051;-77
2023/06/16 10:02:48;;;;;;;;;;;;;;;24.33;47.92;92834.78;2053908;69;20069;-77
2023/06/16 10:05:16;;;;;;;;;;;;;;;24.18;44.71;92828.09;2056952;69;20074;-77
2023/06/16 10:07:51;;;;;;;;;;;;;;;23.54;45.17;92837.28;2055381;69;20054;-77
2023/06/16 10:10:19;;;;;;;;;;;;;;;24.94;43.74;92835.44;2056805;69;20165;-76
2023/06/16 10:12:47;;;;;;;;;;;;;;;24.71;40.04;92837.38;2055239;69;20165;-76
2023/06/16 10:15:15;;;;;;;;;;;;;;;23.73;39.53;92847.66;2055593;69;20058;-77
2023/06/16 10:17:42;;;;;;;;;;;;;;;22.53;41.47;92848.50;2055441;69;20054;-75
2023/06/16 10:20:12;;;;;;;;;;;;;;;22.62;41.96;92849.38;2056275;69;20053;-76
2023/06/16 10:22:40;;;;;;;;;;;;;;;22.67;40.72;92859.53;2059325;69;20074;-75
2023/06/16 10:25:06;;;;;;;;;;;;;;;21.81;42.96;92869.28;2056196;69;20417;-77
2023/06/16 10:27:33;;;;;;;;;;;;;;;22.52;44.86;92878.63;2055783;69;20054;-77
2023/06/16 10:30:01;;;;;;;;;;;;;;;22.14;43.01;92898.66;2052346;69;20050;-76
2023/06/16 10:32:26;;;;;;;;;;;;;;;22.12;42.78;92910.78;2057434;69;20505;-75
2023/06/16 10:34:56;;;;;;;;;;;;;;;22.35;43.33;92914.13;2054985;69;20085;-76
2023/06/16 10:37:22;;;;;;;;;;;;;;;22.11;42.64;92903.56;2059253;69;20490;-77
2023/06/16 10:39:48;;;;;;;;;;;;;;;22.20;43.41;92893.03;2056448;69;20081;-77
2023/06/16 10:42:14;;;;;;;;;;;;;;;25.00;36.61;92895.94;2055695;69;20501;-77
2023/06/16 10:44:40;;;;;;;;;;;;;;;28.03;32.74;92889.41;2053828;69;20061;-76
2023/06/16 10:47:09;;;;;;;;;;;;;;;30.70;29.61;92889.88;2057728;69;20066;-76
2023/06/16 10:49:43;;;;;;;;;;;;;;;32.60;25.49;92893.59;2055308;69;20142;-76
2023/06/16 10:52:09;;;;;;;;;;;;;;;33.88;25.01;92881.38;2055779;69;20054;-77
2023/06/16 10:54:45;;;;;;;;;;;;;;;31.16;26.94;92876.25;2055947;69;20062;-77
2023/06/16 10:57:10;;;;;;;;;;;;;;;32.81;24.01;92873.53;2056243;70;20060;-78
2023/06/16 10:59:54;;;;;;;;;;;;;;;34.52;23.14;92869.56;2058028;69;20074;-75
2023/06/16 11:02:40;;;;;;;;;;;;;;;35.90;20.58;92858.22;2054501;70;20043;-75
2023/06/16 11:05:08;;;;;;;;;;;;;;;37.23;19.25;92860.19;2056032;69;20128;-77
2023/06/16 11:07:38;;;;;;;;;;;;;;;36.20;18.65;92852.84;2058340;69;20101;-75
2023/06/16 11:10:03;;;;;;;;;;;;;;;37.99;18.10;92843.31;2055758;69;20100;-76
2023/06/16 11:12:29;;;;;;;;;;;;;;;34.81;19.02;92843.19;2053048;70;20059;-79
2023/06/16 11:14:55;;;;;;;;;;;;;;;38.05;17.88;92837.19;2055435;69;20061;-77
2023/06/16 11:17:21;;;;;;;;;;;;;;;40.02;17.52;92835.03;2055709;70;20062;-78
2023/06/16 11:19:50;;;;;;;;;;;;;;;41.74;16.48;92839.34;2055861;69;20069;-79
2023/06/16 11:22:15;;;;;;;;;;;;;;;40.75;17.10;92825.47;2056058;69;20109;-75
2023/06/16 11:24:41;;;;;;;;;;;;;;;38.99;15.86;92826.56;2058518;69;20160;-77
2023/06/16 11:27:07;;;;;;;;;;;;;;;41.50;16.10;92823.69;2056895;69;20057;-78
2023/06/16 11:29:36;;;;;;;;;;;;;;;41.78;15.29;92824.34;2058352;69;20065;-77
2023/06/16 11:32:02;;;;;;;;;;;;;;;40.80;16.33;92817.81;2055468;69;20062;-77
2023/06/16 11:34:27;;;;;;;;;;;;;;;34.64;18.24;92807.88;2054950;69;20406;-76
2023/06/16 11:36:53;;;;;;;;;;;;;;;33.38;20.93;92808.13;2056819;69;20076;-76
2023/06/16 11:39:18;;;;;;;;;;;;;;;32.29;22.36;92803.13;2056347;69;20047;-77
2023/06/16 11:41:44;;;;;;;;;;;;;;;31.22;24.93;92804.19;2055688;69;20505;-76
2023/06/16 11:44:13;;;;;;;;;;;;;;;30.57;28.79;92811.63;2055337;69;20065;-78
2023/06/16 11:46:39;;;;;;;;;;;;;;;30.05;29.71;92812.91;2055133;69;20046;-78
2023/06/16 11:49:04;;;;;;;;;;;;;;;29.42;29.82;92825.09;2055360;69;20075;-76
2023/06/16 11:51:30;;;;;;;;;;;;;;;28.33;30.16;92842.31;2055292;69;20058;-76
2023/06/16 11:53:56;;;;;;;;;;;;;;;25.49;32.05;92858.97;2057073;69;20050;-78
2023/06/16 11:56:26;;;;;;;;;;;;;;;24.98;34.46;92860.66;2053908;69;20103;-76
2023/06/16 11:58:52;;;;;;;;;;;;;;;24.82;36.67;92846.81;2051963;70;20050;-76
2023/06/16 12:01:18;;;;;;;;;;;;;;;23.96;37.80;92845.81;2054980;69;20129;-78
2023/06/16 12:03:45;;;;;;;;;;;;;;;24.20;39.00;92836.78;2054881;70;20163;-79
2023/06/16 12:06:10;;;;;;;;;;;;;;;25.29;38.17;92838.63;2055400;69;20047;-77
2023/06/16 12:08:42;;;;;;;;;;;;;;;23.50;38.81;92837.97;2058657;69;20053;-77
2023/06/16 12:11:13;;;;;;;;;;;;;;;23.80;38.17;92828.34;2057009;69;20116;-78
2023/06/16 12:13:39;;;;;;;;;;;;;;;25.63;35.49;92841.03;2057964;69;20056;-77
2023/06/16 12:16:06;;;;;;;;;;;;;;;24.19;36.02;92838.22;2056913;69;20125;-76
2023/06/16 12:18:32;;;;;;;;;;;;;;;25.32;35.51;92845.84;2055480;70;20509;-78
2023/06/16 12:21:10;;;;;;;;;;;;;;;25.03;35.72;92839.84;2056232;69;20046;-78
2023/06/16 12:23:37;;;;;;;;;;;;;;;25.79;36.00;92835.41;2055264;69;20066;-78
2023/06/16 12:26:03;;;;;;;;;;;;;;;26.21;32.73;92830.59;2056061;69;20046;-78
2023/06/16 12:28:29;;;;;;;;;;;;;;;26.00;34.19;92818.22;2055568;69;20057;-79
2023/06/16 12:30:58;;;;;;;;;;;;;;;25.69;32.55;92809.38;2055289;69;20054;-75
2023/06/16 12:33:24;;;;;;;;;;;;;;;25.83;33.01;92806.59;2055260;70;20567;-78
2023/06/16 12:35:51;;;;;;;;;;;;;;;25.57;32.29;92807.16;2056248;69;20061;-78
2023/06/16 12:38:29;;;;;;;;;;;;;;;25.68;33.11;92793.50;2058855;69;20057;-80
2023/06/16 12:40:54;;;;;;;;;;;;;;;26.24;32.06;92788.75;2055562;69;20149;-80
2023/06/16 12:43:20;;;;;;;;;;;;;;;26.03;29.75;92794.44;2055247;70;20169;-79
2023/06/16 12:45:46;;;;;;;;;;;;;;;26.01;31.01;92802.34;2056041;69;20051;-79
2023/06/16 12:48:11;;;;;;;;;;;;;;;25.62;32.67;92804.28;2056157;69;20077;-79
2023/06/16 12:50:37;;;;;;;;;;;;;;;25.23;31.95;92798.97;2055511;69;20149;-77
2023/06/16 12:53:04;;;;;;;;;;;;;;;24.89;32.02;92807.31;2055737;69;20109;-76
2023/06/16 12:55:30;;;;;;;;;;;;;;;24.24;34.05;92801.59;2055481;69;20057;-79